Williston, Florida
Current Conditions -  °F | °C
As of 2:50 PM on Tuesday 21 Oct 2014 (Local Time) from KOCF Reporting Station
Clear Clear  
Wind Chill: 81°   Ceiling: Unl
Heat Index: 82°   Visibility: 10mi
Dew Point: 64°   Wind: 6mph
Humidity: 58%   Direction: 340°NNW
Pressure: 29.93"   Gusts: NA
Location:  29.39°N, 82.45°W
Report Text: KOCF 211850Z 34005KT 10SM CLR 27/18 A2993
Loading
Personal Weather Stations






























Interactive Weather Map
Tropical Storm Tracking
New forecast layout! Learn more

10-Day Weather Forecast

Advertisements
Track Severe Weather on mobile